createdAt,value
2019-03-19T00:01:14.400Z,69.50
2019-03-19T00:02:46.723Z,69.50
2019-03-19T00:04:19.219Z,69.50
2019-03-19T00:05:51.609Z,69.50
2019-03-19T00:07:24.027Z,69.50
2019-03-19T00:08:56.419Z,69.50
2019-03-19T00:10:28.899Z,69.50
2019-03-19T00:12:01.495Z,69.70
2019-03-19T00:13:33.979Z,69.80
2019-03-19T00:15:06.307Z,69.70
2019-03-19T00:16:38.655Z,69.70
2019-03-19T00:18:11.071Z,69.70
2019-03-19T00:19:43.569Z,69.70
2019-03-19T00:21:16.384Z,69.70
2019-03-19T00:22:49.348Z,69.70
2019-03-19T00:24:22.043Z,69.70
2019-03-19T00:25:54.370Z,69.70
2019-03-19T00:27:26.781Z,69.70
2019-03-19T00:28:59.205Z,69.70
2019-03-19T00:30:31.531Z,69.70
2019-03-19T00:32:03.939Z,69.70
2019-03-19T00:33:36.354Z,69.70
2019-03-19T00:35:08.695Z,69.80
2019-03-19T00:36:41.172Z,69.80
2019-03-19T00:38:13.974Z,69.90
2019-03-19T00:39:46.306Z,69.90
2019-03-19T00:41:18.723Z,70.00
2019-03-19T00:42:51.195Z,70.00
2019-03-19T00:44:23.613Z,70.00
2019-03-19T00:45:56.084Z,70.00
2019-03-19T00:47:29.264Z,70.00
2019-03-19T00:49:01.611Z,70.00
2019-03-19T00:50:34.005Z,70.00
2019-03-19T00:52:06.522Z,70.00
2019-03-19T00:53:39.231Z,70.00
2019-03-19T00:55:12.216Z,70.00
2019-03-19T00:56:44.612Z,70.00
2019-03-19T00:58:16.937Z,70.00
2019-03-19T00:59:49.423Z,70.10
2019-03-19T01:01:22.342Z,70.10
2019-03-19T01:02:54.847Z,70.00
2019-03-19T01:04:27.640Z,70.10
2019-03-19T01:06:00.375Z,70.10
2019-03-19T01:07:32.701Z,70.00
2019-03-19T01:09:05.103Z,70.00
2019-03-19T01:10:37.514Z,70.00
2019-03-19T01:12:09.840Z,70.10
2019-03-19T01:13:42.240Z,70.80
2019-03-19T01:15:14.890Z,70.00
2019-03-19T01:16:47.299Z,70.10
2019-03-19T01:18:19.969Z,70.10
2019-03-19T01:19:52.300Z,70.20
2019-03-19T01:21:24.722Z,70.30
2019-03-19T01:22:57.558Z,70.20
2019-03-19T01:24:30.029Z,70.20
2019-03-19T01:26:02.435Z,70.20
2019-03-19T01:27:35.134Z,70.10
2019-03-19T01:29:07.600Z,70.10
2019-03-19T01:30:39.922Z,69.80
2019-03-19T01:32:12.268Z,70.20
2019-03-19T01:33:44.702Z,71.10
2019-03-19T01:35:17.035Z,70.30
2019-03-19T01:36:49.449Z,70.40
2019-03-19T01:38:21.979Z,70.50
2019-03-19T01:39:54.298Z,70.50
2019-03-19T01:41:26.622Z,70.50
2019-03-19T01:42:59.040Z,70.50
2019-03-19T01:44:31.449Z,70.50
2019-03-19T01:46:03.918Z,70.40
2019-03-19T01:47:36.348Z,70.40
2019-03-19T01:49:08.744Z,70.40
2019-03-19T01:50:41.452Z,70.40
2019-03-19T01:52:14.175Z,70.50
2019-03-19T01:53:46.518Z,70.40
2019-03-19T01:55:22.058Z,70.40
2019-03-19T01:56:54.524Z,70.40
2019-03-19T01:58:26.871Z,70.30
2019-03-19T01:59:59.259Z,70.40
2019-03-19T02:01:31.585Z,70.40
2019-03-19T02:03:03.956Z,70.40
2019-03-19T02:04:36.335Z,70.20
2019-03-19T02:06:09.355Z,70.20
2019-03-19T02:07:41.684Z,70.30
2019-03-19T02:09:14.183Z,70.40
2019-03-19T02:10:46.502Z,70.40
2019-03-19T02:12:18.836Z,70.40
2019-03-19T02:13:51.248Z,70.40
2019-03-19T02:15:23.711Z,70.40
2019-03-19T02:16:56.040Z,70.40
2019-03-19T02:18:28.463Z,70.50
2019-03-19T02:20:00.943Z,70.50
2019-03-19T02:21:33.337Z,70.50
2019-03-19T02:23:05.852Z,71.40
2019-03-19T02:24:38.336Z,70.70
2019-03-19T02:26:16.423Z,70.70
2019-03-19T02:27:44.844Z,70.60
2019-03-19T02:29:17.271Z,70.60
2019-03-19T02:30:49.679Z,70.60
2019-03-19T02:32:22.073Z,70.60
2019-03-19T02:33:54.541Z,70.70
2019-03-19T02:35:26.955Z,70.70
2019-03-19T02:36:59.277Z,70.70
2019-03-19T02:38:31.745Z,70.60
2019-03-19T02:40:04.526Z,70.60
2019-03-19T02:41:36.924Z,70.50
2019-03-19T02:43:09.343Z,70.50
2019-03-19T02:44:41.747Z,70.50
2019-03-19T02:46:14.223Z,70.50
2019-03-19T02:47:46.552Z,70.40
2019-03-19T02:49:18.948Z,70.40
2019-03-19T02:50:51.456Z,70.40
2019-03-19T02:52:23.846Z,70.40
2019-03-19T02:53:56.187Z,70.50
2019-03-19T02:55:28.591Z,70.50
2019-03-19T02:57:01.003Z,70.50
2019-03-19T02:58:33.413Z,70.50
2019-03-19T03:00:05.883Z,70.50
2019-03-19T03:01:38.364Z,70.50
2019-03-19T03:03:10.686Z,70.50
2019-03-19T03:04:43.083Z,70.50
2019-03-19T03:06:15.507Z,70.50
2019-03-19T03:07:47.839Z,70.40
2019-03-19T03:09:20.163Z,70.40
2019-03-19T03:10:52.651Z,70.50
2019-03-19T03:12:24.991Z,70.50
2019-03-19T03:13:57.392Z,70.40
2019-03-19T03:15:29.779Z,70.40
2019-03-19T03:17:02.143Z,70.40
2019-03-19T03:18:34.616Z,70.50
2019-03-19T03:20:07.024Z,70.50
2019-03-19T03:21:39.434Z,70.50
2019-03-19T03:23:11.919Z,70.50
2019-03-19T03:24:44.419Z,70.50
2019-03-19T03:26:16.811Z,70.70
2019-03-19T03:27:49.185Z,70.60
2019-03-19T03:29:21.652Z,70.70
2019-03-19T03:30:54.054Z,70.60
2019-03-19T03:32:26.451Z,70.70
2019-03-19T03:33:59.772Z,70.70
2019-03-19T03:35:32.171Z,70.70
2019-03-19T03:37:04.586Z,70.70
2019-03-19T03:38:37.061Z,70.70
2019-03-19T03:40:09.464Z,70.70
2019-03-19T03:41:41.796Z,70.70
2019-03-19T03:43:14.289Z,70.80
2019-03-19T03:44:46.670Z,70.80
2019-03-19T03:46:19.075Z,70.70
2019-03-19T03:47:51.959Z,70.80
2019-03-19T03:49:24.366Z,70.70
2019-03-19T03:50:56.695Z,70.70
2019-03-19T03:52:29.095Z,70.70
2019-03-19T03:54:01.444Z,70.60
2019-03-19T03:55:33.945Z,70.60
2019-03-19T03:57:06.366Z,70.60
2019-03-19T03:58:38.763Z,70.60
2019-03-19T04:00:11.255Z,70.50
2019-03-19T04:01:43.646Z,70.50
2019-03-19T04:03:15.967Z,70.60
2019-03-19T04:04:48.391Z,70.50
2019-03-19T04:06:20.859Z,70.50
2019-03-19T04:07:53.191Z,70.50
2019-03-19T04:09:25.604Z,70.50
2019-03-19T04:10:58.080Z,70.50
2019-03-19T04:12:32.103Z,70.50
2019-03-19T04:14:04.603Z,70.50
2019-03-19T04:15:37.021Z,70.50
2019-03-19T04:17:09.422Z,70.50
2019-03-19T04:18:41.839Z,70.50
2019-03-19T04:20:14.300Z,70.50
2019-03-19T04:21:46.723Z,70.50
2019-03-19T04:23:19.199Z,70.40
2019-03-19T04:24:52.064Z,70.40
2019-03-19T04:26:24.542Z,70.40
2019-03-19T04:27:56.929Z,70.50
2019-03-19T04:29:29.396Z,70.50
2019-03-19T04:31:01.743Z,70.50
2019-03-19T04:32:34.239Z,70.50
2019-03-19T04:34:06.715Z,70.40
2019-03-19T04:35:41.878Z,70.40
2019-03-19T04:37:13.236Z,70.40
2019-03-19T04:38:45.746Z,70.50
2019-03-19T04:40:27.684Z,70.50
2019-03-19T04:42:00.199Z,70.50
2019-03-19T04:43:32.603Z,70.50
2019-03-19T04:45:04.940Z,70.50
2019-03-19T04:46:37.406Z,70.50
2019-03-19T04:48:09.900Z,70.50
2019-03-19T04:49:42.306Z,70.50
2019-03-19T04:51:14.694Z,70.50
2019-03-19T04:52:47.110Z,70.50
2019-03-19T04:54:19.434Z,70.40
2019-03-19T04:55:51.852Z,70.40
2019-03-19T04:57:27.033Z,70.40
2019-03-19T04:58:58.361Z,70.40
2019-03-19T05:00:30.844Z,70.40
2019-03-19T05:02:03.310Z,70.50
2019-03-19T05:03:35.663Z,70.40
2019-03-19T05:05:08.133Z,70.30
2019-03-19T05:06:40.611Z,70.30
2019-03-19T05:08:13.030Z,70.20
2019-03-19T05:09:45.506Z,70.20
2019-03-19T05:11:17.907Z,70.20
2019-03-19T05:12:50.322Z,70.40
2019-03-19T05:14:22.745Z,70.20
2019-03-19T05:15:56.773Z,70.30
2019-03-19T05:17:29.315Z,70.30
2019-03-19T05:19:01.782Z,70.30
2019-03-19T05:20:34.221Z,70.20
2019-03-19T05:22:06.602Z,70.20
2019-03-19T05:23:39.015Z,70.40
2019-03-19T05:25:11.372Z,70.30
2019-03-19T05:26:43.773Z,70.20
2019-03-19T05:28:16.174Z,70.20
2019-03-19T05:29:48.666Z,70.30
2019-03-19T05:31:21.243Z,70.30
2019-03-19T05:32:53.651Z,70.20
2019-03-19T05:34:26.063Z,70.20
2019-03-19T05:35:58.410Z,70.20
2019-03-19T05:37:30.809Z,70.30
2019-03-19T05:39:03.212Z,70.20
2019-03-19T05:40:35.567Z,70.20
2019-03-19T05:42:07.966Z,70.20
2019-03-19T05:43:40.442Z,70.20
2019-03-19T05:45:12.882Z,70.30
2019-03-19T05:46:45.343Z,70.30
2019-03-19T05:48:18.000Z,70.20
2019-03-19T05:49:50.582Z,70.30
2019-03-19T05:51:23.064Z,70.20
2019-03-19T05:52:55.474Z,70.10
2019-03-19T05:54:27.828Z,70.10
2019-03-19T05:56:00.637Z,70.00
2019-03-19T05:57:33.147Z,70.00
2019-03-19T05:59:05.572Z,70.00
2019-03-19T06:00:38.005Z,70.10
2019-03-19T06:02:10.597Z,70.10
2019-03-19T06:03:43.023Z,70.20
2019-03-19T06:05:15.512Z,70.10
2019-03-19T06:06:48.002Z,70.30
2019-03-19T06:08:20.339Z,70.20
2019-03-19T06:09:52.747Z,70.20
2019-03-19T06:11:25.255Z,70.20
2019-03-19T06:12:57.686Z,69.70
2019-03-19T06:14:30.199Z,70.10
2019-03-19T06:16:02.680Z,70.50
2019-03-19T06:17:35.508Z,70.20
2019-03-19T06:19:07.928Z,70.20
2019-03-19T06:20:40.416Z,70.30
2019-03-19T06:22:12.835Z,70.20
2019-03-19T06:23:45.555Z,70.20
2019-03-19T06:25:20.037Z,70.20
2019-03-19T06:26:55.704Z,71.10
2019-03-19T06:28:29.895Z,70.40
2019-03-19T06:30:02.385Z,70.40
2019-03-19T06:31:34.808Z,70.40
2019-03-19T06:33:07.299Z,70.40
2019-03-19T06:34:39.776Z,70.50
2019-03-19T06:36:12.431Z,70.50
2019-03-19T06:37:45.009Z,70.50
2019-03-19T06:39:17.521Z,70.50
2019-03-19T06:40:49.940Z,70.50
2019-03-19T06:42:22.426Z,70.70
2019-03-19T06:43:54.936Z,70.50
2019-03-19T06:45:27.355Z,70.50
2019-03-19T06:47:00.121Z,70.50
2019-03-19T06:48:33.479Z,70.40
2019-03-19T06:50:06.008Z,70.40
2019-03-19T06:51:38.447Z,70.30
2019-03-19T06:53:10.860Z,70.40
2019-03-19T06:54:43.275Z,70.20
2019-03-19T06:56:15.683Z,70.30
2019-03-19T06:57:48.016Z,70.20
2019-03-19T06:59:20.402Z,70.20
2019-03-19T07:00:52.747Z,70.20
2019-03-19T07:02:25.146Z,70.20
2019-03-19T07:03:57.475Z,70.10
2019-03-19T07:05:29.970Z,70.70
2019-03-19T07:07:02.299Z,69.90
2019-03-19T07:08:34.717Z,70.00
2019-03-19T07:10:07.213Z,70.00
2019-03-19T07:11:39.653Z,69.80
2019-03-19T07:13:13.203Z,69.90
2019-03-19T07:14:45.727Z,69.80
2019-03-19T07:16:18.153Z,69.70
2019-03-19T07:17:50.571Z,69.70
2019-03-19T07:19:22.970Z,69.50
2019-03-19T07:20:55.400Z,69.40
2019-03-19T07:22:27.804Z,69.40
2019-03-19T07:24:00.203Z,69.30
2019-03-19T07:25:32.892Z,70.00
2019-03-19T07:27:05.314Z,69.10
2019-03-19T07:28:37.636Z,69.00
2019-03-19T07:30:17.274Z,69.10
2019-03-19T07:31:51.548Z,68.80
2019-03-19T07:33:24.367Z,68.70
2019-03-19T07:34:56.872Z,68.70
2019-03-19T07:36:29.439Z,68.60
2019-03-19T07:38:01.931Z,68.40
2019-03-19T07:39:34.447Z,68.10
2019-03-19T07:41:07.034Z,68.10
2019-03-19T07:42:39.478Z,67.80
2019-03-19T07:44:11.898Z,67.70
2019-03-19T07:45:44.218Z,67.60
2019-03-19T07:48:54.771Z,67.40
2019-03-19T07:50:27.099Z,67.30
2019-03-19T07:51:59.427Z,67.20
2019-03-19T07:53:31.962Z,67.00
2019-03-19T07:55:04.649Z,67.00
2019-03-19T07:56:37.103Z,66.90
2019-03-19T07:58:09.544Z,66.80
2019-03-19T07:59:41.959Z,66.70
2019-03-19T08:01:14.841Z,66.70
2019-03-19T08:02:47.457Z,66.60
2019-03-19T08:04:19.923Z,67.30
2019-03-19T08:05:52.280Z,66.30
2019-03-19T08:07:30.313Z,66.30
2019-03-19T08:09:04.769Z,66.00
2019-03-19T08:10:37.257Z,66.00
2019-03-19T08:12:09.746Z,65.80
2019-03-19T08:13:42.187Z,65.70
2019-03-19T08:15:14.694Z,65.70
2019-03-19T08:16:47.103Z,65.50
2019-03-19T08:18:21.588Z,65.40
2019-03-19T08:19:54.190Z,65.40
2019-03-19T08:21:26.783Z,65.20
2019-03-19T08:22:59.299Z,65.00
2019-03-19T08:24:31.695Z,65.00
2019-03-19T08:26:04.219Z,65.00
2019-03-19T08:27:36.650Z,65.00
2019-03-19T08:29:09.148Z,65.00
2019-03-19T08:30:42.343Z,65.00
2019-03-19T08:32:16.337Z,65.00
2019-03-19T08:33:48.891Z,64.80
2019-03-19T08:35:21.487Z,64.80
2019-03-19T08:36:54.065Z,64.80
2019-03-19T08:38:26.642Z,64.70
2019-03-19T08:39:59.162Z,64.50
2019-03-19T08:41:31.586Z,64.50
2019-03-19T08:43:04.060Z,64.50
2019-03-19T08:44:36.651Z,64.40
2019-03-19T08:46:09.101Z,64.10
2019-03-19T08:47:41.585Z,64.10
2019-03-19T08:49:14.135Z,63.90
2019-03-19T08:50:46.475Z,63.80
2019-03-19T08:52:20.254Z,63.60
2019-03-19T08:53:52.655Z,64.40
2019-03-19T08:55:24.979Z,63.40
2019-03-19T08:56:57.390Z,63.30
2019-03-19T08:58:29.804Z,63.20
2019-03-19T09:00:02.203Z,62.90
2019-03-19T09:01:34.689Z,62.80
2019-03-19T09:03:07.273Z,62.90
2019-03-19T09:04:39.698Z,62.80
2019-03-19T09:06:12.104Z,62.60
2019-03-19T09:07:45.056Z,62.50
2019-03-19T09:09:17.527Z,62.40
2019-03-19T09:10:50.002Z,63.30
2019-03-19T09:12:22.440Z,63.20
2019-03-19T09:13:54.847Z,62.30
2019-03-19T09:15:27.309Z,62.40
2019-03-19T09:17:03.363Z,62.30
2019-03-19T09:18:35.960Z,62.30
2019-03-19T09:20:08.921Z,63.00
2019-03-19T09:22:00.932Z,62.90
2019-03-19T09:23:16.179Z,61.90
2019-03-19T09:24:56.756Z,61.40
2019-03-19T09:26:30.795Z,61.50
2019-03-19T09:28:05.760Z,61.30
2019-03-19T09:29:37.444Z,61.20
2019-03-19T09:31:10.196Z,60.90
2019-03-19T09:32:42.596Z,60.70
2019-03-19T09:34:15.142Z,60.50
2019-03-19T09:35:47.671Z,60.30
2019-03-19T09:37:20.123Z,60.00
2019-03-19T09:38:52.546Z,59.90
2019-03-19T09:40:25.089Z,59.90
2019-03-19T09:41:57.526Z,59.70
2019-03-19T09:43:29.988Z,59.70
2019-03-19T09:45:02.673Z,59.60
2019-03-19T09:46:35.106Z,59.60
2019-03-19T09:50:18.243Z,59.70
2019-03-19T09:51:50.667Z,59.70
2019-03-19T09:53:23.323Z,59.70
2019-03-19T09:54:57.363Z,59.70
2019-03-19T09:56:29.861Z,59.70
2019-03-19T09:58:02.339Z,59.80
2019-03-19T09:59:34.741Z,59.70
2019-03-19T10:01:08.223Z,59.80
2019-03-19T10:02:40.625Z,59.70
2019-03-19T10:04:13.035Z,59.80
2019-03-19T10:05:45.438Z,59.70
2019-03-19T10:07:17.923Z,59.60
2019-03-19T10:08:50.339Z,59.70
2019-03-19T10:10:24.432Z,59.60
2019-03-19T10:11:56.858Z,59.50
2019-03-19T10:13:29.426Z,59.50
2019-03-19T10:15:02.177Z,59.50
2019-03-19T10:16:34.690Z,59.40
2019-03-19T10:18:07.017Z,59.50
2019-03-19T10:19:39.415Z,59.50
2019-03-19T10:21:11.909Z,59.50
2019-03-19T10:22:44.235Z,59.60
2019-03-19T10:24:16.640Z,59.70
2019-03-19T10:25:49.128Z,59.60
2019-03-19T10:27:21.470Z,59.70
2019-03-19T10:28:53.943Z,60.40
2019-03-19T10:30:26.272Z,59.70
2019-03-19T10:31:58.696Z,59.70
2019-03-19T10:33:31.090Z,59.70
2019-03-19T10:35:03.495Z,59.80
2019-03-19T10:36:35.847Z,59.70
2019-03-19T10:38:08.252Z,59.70
2019-03-19T10:39:40.654Z,59.60
2019-03-19T10:41:12.982Z,59.50
2019-03-19T10:42:45.508Z,59.40
2019-03-19T10:44:17.975Z,59.30
2019-03-19T10:45:51.418Z,59.00
2019-03-19T10:47:24.346Z,58.90
2019-03-19T10:48:56.819Z,58.70
2019-03-19T10:50:29.164Z,58.50
2019-03-19T10:52:01.649Z,58.30
2019-03-19T10:53:34.077Z,58.10
2019-03-19T10:55:06.409Z,57.80
2019-03-19T10:56:39.131Z,57.60
2019-03-19T10:58:11.671Z,57.50
2019-03-19T10:59:49.125Z,57.20
2019-03-19T11:01:18.183Z,57.00
2019-03-19T11:02:50.607Z,56.80
2019-03-19T11:04:23.018Z,56.50
2019-03-19T11:05:55.726Z,56.30
2019-03-19T11:07:28.157Z,56.00
2019-03-19T11:09:00.566Z,55.80
2019-03-19T11:10:32.903Z,55.40
2019-03-19T11:12:05.299Z,55.20
2019-03-19T11:13:37.723Z,55.00
2019-03-19T11:15:10.122Z,54.80
2019-03-19T11:16:42.455Z,54.70
2019-03-19T11:18:14.788Z,54.60
2019-03-19T11:19:47.212Z,54.50
2019-03-19T11:21:19.697Z,54.50
2019-03-19T11:22:52.049Z,54.40
2019-03-19T11:24:24.834Z,54.40
2019-03-19T11:25:57.159Z,54.40
2019-03-19T11:27:29.487Z,54.20
2019-03-19T11:29:01.887Z,54.10
2019-03-19T11:30:34.298Z,53.90
2019-03-19T11:32:06.630Z,53.60
2019-03-19T11:33:39.038Z,53.30
2019-03-19T11:35:11.459Z,53.00
2019-03-19T11:36:43.862Z,52.70
2019-03-19T11:38:16.389Z,52.10
2019-03-19T11:39:48.880Z,51.80
2019-03-19T11:41:21.287Z,51.30
2019-03-19T11:42:53.678Z,51.00
2019-03-19T11:44:26.131Z,50.70
2019-03-19T11:45:58.593Z,50.40
2019-03-19T11:47:34.868Z,50.10
2019-03-19T11:49:07.403Z,49.70
2019-03-19T11:50:39.839Z,49.00
2019-03-19T11:52:12.375Z,48.20
2019-03-19T11:53:44.879Z,47.40
2019-03-19T11:55:17.286Z,46.80
2019-03-19T11:56:49.711Z,46.20
2019-03-19T11:58:22.222Z,45.90
2019-03-19T11:59:54.945Z,45.70
2019-03-19T12:01:27.570Z,45.30
2019-03-19T12:03:11.090Z,45.00
2019-03-19T12:04:34.003Z,45.00
2019-03-19T12:06:06.370Z,45.10
2019-03-19T12:07:38.880Z,45.20
2019-03-19T12:09:12.393Z,45.50
2019-03-19T12:10:44.873Z,45.90
2019-03-19T12:12:17.455Z,46.20
2019-03-19T12:13:49.863Z,46.50
2019-03-19T12:15:22.277Z,46.70
2019-03-19T12:16:54.756Z,47.00
2019-03-19T12:18:27.180Z,47.20
2019-03-19T12:19:59.660Z,47.40
2019-03-19T12:21:33.052Z,47.60
2019-03-19T12:23:05.614Z,47.60
2019-03-19T12:24:38.072Z,47.70
2019-03-19T12:26:10.475Z,47.80
2019-03-19T12:27:42.896Z,47.80
2019-03-19T12:29:15.491Z,47.80
2019-03-19T12:30:47.897Z,47.80
2019-03-19T12:32:20.235Z,47.80
2019-03-19T12:33:52.655Z,47.80
2019-03-19T12:35:25.356Z,47.70
2019-03-19T12:36:57.764Z,47.70
2019-03-19T12:38:30.263Z,47.80
2019-03-19T12:40:02.664Z,47.90
2019-03-19T12:41:35.491Z,47.90
2019-03-19T12:43:07.898Z,47.60
2019-03-19T12:44:40.418Z,47.50
2019-03-19T12:46:12.820Z,47.30
2019-03-19T12:47:45.367Z,47.30
2019-03-19T12:49:17.789Z,47.20
2019-03-19T12:50:50.115Z,47.20
2019-03-19T12:52:22.511Z,47.10
2019-03-19T12:53:54.907Z,47.10
2019-03-19T12:55:27.275Z,47.00
2019-03-19T12:57:00.383Z,47.00
2019-03-19T12:58:34.519Z,47.00
2019-03-19T13:00:06.959Z,47.10
2019-03-19T13:01:39.356Z,47.00
2019-03-19T13:03:11.824Z,47.00
2019-03-19T13:04:44.158Z,47.00
2019-03-19T13:06:16.507Z,46.90
2019-03-19T13:07:48.907Z,46.90
2019-03-19T13:09:21.322Z,47.00
2019-03-19T13:10:53.738Z,47.00
2019-03-19T13:12:26.758Z,47.60
2019-03-19T13:13:59.230Z,46.80
2019-03-19T13:15:31.729Z,46.80
2019-03-19T13:17:04.195Z,46.70
2019-03-19T13:18:36.525Z,46.50
2019-03-19T13:20:08.866Z,46.40
2019-03-19T13:21:41.350Z,46.30
2019-03-19T13:23:13.791Z,46.20
2019-03-19T13:24:46.179Z,46.00
2019-03-19T13:26:18.622Z,45.70
2019-03-19T13:27:51.050Z,45.40
2019-03-19T13:29:23.531Z,45.10
2019-03-19T13:30:56.003Z,44.90
2019-03-19T13:32:28.483Z,44.70
2019-03-19T13:34:00.954Z,44.60
2019-03-19T13:35:33.451Z,44.30
2019-03-19T13:37:05.800Z,44.10
2019-03-19T13:38:38.202Z,44.00
2019-03-19T13:40:10.547Z,43.80
2019-03-19T13:41:42.900Z,43.60
2019-03-19T13:43:15.321Z,43.60
2019-03-19T13:44:47.727Z,43.50
2019-03-19T13:46:20.062Z,43.50
2019-03-19T13:47:52.483Z,43.40
2019-03-19T13:49:24.892Z,43.30
2019-03-19T13:50:57.291Z,43.30
2019-03-19T13:52:29.689Z,43.40
2019-03-19T13:54:02.055Z,43.50
2019-03-19T13:55:34.385Z,43.60
2019-03-19T13:57:07.159Z,43.60
2019-03-19T13:58:39.652Z,43.70
2019-03-19T14:00:12.060Z,43.70
2019-03-19T14:01:44.458Z,43.70
2019-03-19T14:03:16.883Z,43.70
2019-03-19T14:04:49.294Z,43.80
2019-03-19T14:06:21.745Z,44.40
2019-03-19T14:07:54.161Z,43.70
2019-03-19T14:09:26.503Z,43.80
2019-03-19T14:10:59.229Z,43.80
2019-03-19T14:12:31.626Z,43.80
2019-03-19T14:14:04.055Z,43.90
2019-03-19T14:15:36.472Z,43.80
2019-03-19T14:17:08.884Z,43.90
2019-03-19T14:18:41.281Z,43.90
2019-03-19T14:20:13.902Z,43.90
2019-03-19T14:21:46.370Z,43.90
2019-03-19T14:23:18.739Z,43.90
2019-03-19T14:24:51.248Z,43.80
2019-03-19T14:26:23.671Z,43.80
2019-03-19T14:27:56.017Z,43.70
2019-03-19T14:29:28.443Z,43.80
2019-03-19T14:31:08.573Z,43.70
2019-03-19T14:32:34.896Z,43.60
2019-03-19T14:34:07.292Z,43.60
2019-03-19T14:35:39.715Z,43.40
2019-03-19T14:37:12.503Z,43.10
2019-03-19T14:38:47.279Z,42.80
2019-03-19T14:40:19.114Z,42.50
2019-03-19T14:41:51.467Z,42.20
2019-03-19T14:43:23.875Z,41.80
2019-03-19T14:44:56.342Z,41.50
2019-03-19T14:46:31.091Z,40.90
2019-03-19T14:48:02.792Z,40.50
2019-03-19T14:49:46.321Z,40.30
2019-03-19T14:51:10.279Z,40.10
2019-03-19T14:52:43.931Z,39.90
2019-03-19T14:54:16.570Z,39.70
2019-03-19T14:55:48.969Z,39.60
2019-03-19T14:57:21.322Z,39.40
2019-03-19T14:58:53.805Z,39.20
2019-03-19T15:00:26.209Z,39.10
2019-03-19T15:01:58.631Z,39.10
2019-03-19T15:03:31.120Z,39.00
2019-03-19T15:05:03.449Z,39.00
2019-03-19T15:06:35.934Z,39.00
2019-03-19T15:08:08.353Z,39.10
2019-03-19T15:09:40.983Z,39.30
2019-03-19T15:11:13.448Z,39.00
2019-03-19T15:12:45.858Z,39.30
2019-03-19T15:14:18.193Z,39.40
2019-03-19T15:15:50.617Z,40.10
2019-03-19T15:17:23.103Z,39.50
2019-03-19T15:18:55.451Z,39.50
2019-03-19T15:20:27.788Z,39.50
2019-03-19T15:22:00.262Z,39.40
2019-03-19T15:23:32.610Z,39.30
2019-03-19T15:25:05.085Z,39.30
2019-03-19T15:26:37.554Z,39.10
2019-03-19T15:28:09.910Z,39.00
2019-03-19T15:29:42.340Z,38.70
2019-03-19T15:31:14.807Z,38.60
2019-03-19T15:32:47.233Z,38.60
2019-03-19T15:34:20.133Z,38.60
2019-03-19T15:35:52.466Z,38.30
2019-03-19T15:37:24.878Z,38.30
2019-03-19T15:38:57.283Z,38.20
2019-03-19T15:40:29.765Z,38.20
2019-03-19T15:42:02.094Z,38.30
2019-03-19T15:43:34.494Z,38.20
2019-03-19T15:45:06.919Z,38.10
2019-03-19T15:46:39.338Z,38.00
2019-03-19T15:48:11.674Z,38.00
2019-03-19T15:49:44.159Z,37.90
2019-03-19T15:51:16.538Z,37.90
2019-03-19T15:52:49.011Z,37.70
2019-03-19T15:54:21.357Z,37.70
2019-03-19T15:56:02.021Z,37.70
2019-03-19T15:57:37.879Z,37.80
2019-03-19T15:59:10.334Z,38.00
2019-03-19T16:02:40.391Z,38.10
2019-03-19T16:04:12.884Z,38.20
2019-03-19T16:05:46.375Z,38.20
2019-03-19T16:07:18.859Z,38.20
2019-03-19T16:09:09.780Z,38.30
2019-03-19T16:11:00.393Z,38.30
2019-03-19T16:12:51.283Z,38.30
2019-03-19T16:14:41.926Z,38.40
2019-03-19T16:16:33.158Z,38.40
2019-03-19T16:18:05.487Z,38.40
2019-03-19T16:19:38.432Z,38.40
2019-03-19T16:21:10.958Z,38.60
2019-03-19T16:22:43.359Z,38.70
2019-03-19T16:24:15.759Z,38.90
2019-03-19T16:25:48.098Z,38.90
2019-03-19T16:27:20.522Z,39.00
2019-03-19T16:28:53.581Z,39.10
2019-03-19T16:30:26.042Z,39.40
2019-03-19T16:31:58.379Z,39.50
2019-03-19T16:33:30.874Z,39.60
2019-03-19T16:35:03.374Z,39.80
2019-03-19T16:36:35.710Z,39.90
2019-03-19T16:38:08.127Z,39.90
2019-03-19T16:39:40.530Z,40.10
2019-03-19T16:41:12.889Z,40.10
2019-03-19T16:42:45.379Z,40.20
2019-03-19T16:44:18.154Z,40.40
2019-03-19T16:45:50.674Z,40.50
2019-03-19T16:47:23.205Z,40.50
2019-03-19T16:48:55.716Z,40.60
2019-03-19T16:50:28.107Z,40.70
2019-03-19T16:52:00.709Z,40.80
2019-03-19T16:53:33.386Z,40.90
2019-03-19T16:55:05.905Z,41.10
2019-03-19T16:56:38.395Z,41.20
2019-03-19T16:58:10.907Z,41.40
2019-03-19T16:59:43.371Z,41.50
2019-03-19T17:01:15.896Z,41.60
2019-03-19T17:02:58.862Z,41.70
2019-03-19T17:04:41.828Z,41.70
2019-03-19T17:06:14.267Z,41.80
2019-03-19T17:07:46.713Z,41.80
2019-03-19T17:09:19.188Z,41.80
2019-03-19T17:10:51.703Z,41.90
2019-03-19T17:12:24.194Z,42.00
2019-03-19T17:13:56.625Z,42.00
2019-03-19T17:15:29.273Z,42.00
2019-03-19T17:17:01.847Z,42.10
2019-03-19T17:18:34.251Z,42.20
2019-03-19T17:20:08.199Z,42.20
2019-03-19T17:21:42.225Z,42.30
2019-03-19T17:23:14.643Z,42.30
2019-03-19T17:24:47.059Z,42.30
2019-03-19T17:26:19.556Z,42.40
2019-03-19T17:27:51.903Z,42.40
2019-03-19T17:29:24.382Z,42.40
2019-03-19T17:30:56.907Z,42.50
2019-03-19T17:32:29.315Z,42.60
2019-03-19T17:34:01.786Z,42.60
2019-03-19T17:35:34.296Z,42.70
2019-03-19T17:37:06.744Z,42.70
2019-03-19T17:38:39.163Z,42.80
2019-03-19T17:40:11.648Z,42.90
2019-03-19T17:41:43.994Z,42.90
2019-03-19T17:43:16.464Z,43.00
2019-03-19T17:44:48.943Z,43.00
2019-03-19T17:46:21.289Z,43.00
2019-03-19T17:47:53.799Z,43.10
2019-03-19T17:49:26.262Z,43.20
2019-03-19T17:50:58.795Z,43.20
2019-03-19T17:52:31.251Z,43.20
2019-03-19T17:54:03.652Z,43.40
2019-03-19T17:55:36.483Z,43.40
2019-03-19T17:57:09.213Z,43.40
2019-03-19T17:58:41.730Z,43.50
2019-03-19T18:00:14.209Z,43.50
2019-03-19T18:01:46.620Z,43.60
2019-03-19T18:03:19.050Z,43.60
2019-03-19T18:04:51.469Z,43.80
2019-03-19T18:06:23.967Z,43.80
2019-03-19T18:07:56.474Z,43.80
2019-03-19T18:09:28.863Z,43.90
2019-03-19T18:11:01.358Z,44.00
2019-03-19T18:12:33.927Z,44.00
2019-03-19T18:14:06.383Z,44.10
2019-03-19T18:15:38.788Z,44.10
2019-03-19T18:17:11.294Z,44.10
2019-03-19T18:18:45.428Z,44.20
2019-03-19T18:20:18.063Z,44.20
2019-03-19T18:21:53.575Z,45.00
2019-03-19T18:23:29.582Z,44.30
2019-03-19T18:25:02.192Z,44.40
2019-03-19T18:26:40.707Z,44.40
2019-03-19T18:28:13.114Z,44.40
2019-03-19T18:29:45.535Z,44.40
2019-03-19T18:31:18.011Z,44.50
2019-03-19T18:32:50.423Z,44.50
2019-03-19T18:34:22.863Z,44.60
2019-03-19T18:35:56.581Z,44.60
2019-03-19T18:37:29.230Z,44.70
2019-03-19T18:39:01.730Z,44.70
2019-03-19T18:40:34.228Z,44.70
2019-03-19T18:42:06.568Z,44.80
2019-03-19T18:43:38.997Z,44.80
2019-03-19T18:45:11.513Z,44.80
2019-03-19T18:46:43.968Z,44.80
2019-03-19T18:48:16.371Z,44.90
2019-03-19T18:49:48.832Z,44.90
2019-03-19T18:51:21.253Z,44.90
2019-03-19T18:52:53.802Z,45.00
2019-03-19T18:54:26.263Z,45.10
2019-03-19T18:55:58.618Z,45.00
2019-03-19T18:57:31.072Z,45.10
2019-03-19T18:59:03.547Z,45.10
2019-03-19T19:00:35.887Z,45.10
2019-03-19T19:02:08.381Z,45.00
2019-03-19T19:03:40.844Z,45.10
2019-03-19T19:05:13.434Z,45.10
2019-03-19T19:06:45.967Z,45.20
2019-03-19T19:08:18.463Z,45.10
2019-03-19T19:09:50.883Z,45.20
2019-03-19T19:11:23.295Z,45.20
2019-03-19T19:12:55.919Z,45.30
2019-03-19T19:14:28.343Z,45.30
2019-03-19T19:16:00.851Z,45.30
2019-03-19T19:17:33.290Z,45.40
2019-03-19T19:19:06.677Z,45.40
2019-03-19T19:20:39.144Z,45.50
2019-03-19T19:22:11.615Z,45.40
2019-03-19T19:23:44.147Z,45.50
2019-03-19T19:25:16.636Z,45.50
2019-03-19T19:26:54.345Z,45.60
2019-03-19T19:28:26.925Z,45.60
2019-03-19T19:30:00.882Z,45.50
2019-03-19T19:31:33.343Z,45.60
2019-03-19T19:33:05.907Z,45.60
2019-03-19T19:34:54.203Z,45.70
2019-03-19T19:36:26.608Z,45.80
2019-03-19T19:38:03.381Z,45.90
2019-03-19T19:39:36.196Z,46.00
2019-03-19T19:41:08.563Z,46.10
2019-03-19T19:42:41.062Z,46.20
2019-03-19T19:44:13.495Z,46.30
2019-03-19T19:45:45.859Z,46.40
2019-03-19T19:47:18.331Z,46.40
2019-03-19T19:48:51.980Z,46.50
2019-03-19T19:50:24.412Z,46.60
2019-03-19T19:51:56.831Z,46.70
2019-03-19T19:53:29.230Z,46.80
2019-03-19T19:55:01.647Z,46.80
2019-03-19T19:56:34.291Z,47.60
2019-03-19T19:58:06.707Z,47.00
2019-03-19T19:59:39.244Z,47.00
2019-03-19T20:01:11.767Z,47.00